Time;durP1;ratioP1;P1;durP2;ratioP2;P2;SDS_P1;SDS_P2;PMS_P1;PMS_P2;Temp;Humidity;BMP_temperature;BMP_pressure;BME280_temperature;BME280_humidity;BME280_pressure;Samples;Min_cycle;Max_cycle;Signal;HPM_P1;HPM_P2
2024/04/19 00:01:55;;;;;;;4.13;3.55;;;;;;;1.19;100.00;95876.78;7397384;19;19999;-58
2024/04/19 00:04:20;;;;;;;4.88;3.72;;;;;;;1.31;100.00;95874.06;7397001;19;20007;-61
2024/04/19 00:06:46;;;;;;;3.95;3.55;;;;;;;1.18;100.00;95875.94;7397251;19;20343;-60
2024/04/19 00:09:12;;;;;;;3.90;3.50;;;;;;;1.24;100.00;95867.28;7397288;19;20006;-57
2024/04/19 00:11:37;;;;;;;3.55;3.25;;;;;;;1.10;100.00;95881.19;7397079;19;20001;-61
2024/04/19 00:14:03;;;;;;;4.25;3.67;;;;;;;1.15;100.00;95873.41;7396994;19;20074;-57
2024/04/19 00:16:29;;;;;;;3.45;3.15;;;;;;;1.22;100.00;95882.75;7395343;19;20010;-60
2024/04/19 00:18:55;;;;;;;4.30;3.65;;;;;;;1.29;100.00;95875.81;7395663;19;19998;-60
2024/04/19 00:21:21;;;;;;;3.97;3.58;;;;;;;1.05;100.00;95874.38;7397069;19;19998;-55
2024/04/19 00:23:47;;;;;;;5.03;3.50;;;;;;;0.98;100.00;95873.56;7397145;19;19995;-56
2024/04/19 00:26:12;;;;;;;4.25;3.85;;;;;;;0.81;100.00;95872.03;7396840;19;20005;-59
2024/04/19 00:28:38;;;;;;;4.15;3.75;;;;;;;0.83;100.00;95864.28;7396467;19;20018;-59
2024/04/19 00:31:04;;;;;;;3.70;3.22;;;;;;;0.89;100.00;95871.94;7396502;19;19999;-59
2024/04/19 00:33:30;;;;;;;3.42;3.13;;;;;;;0.67;100.00;95863.59;7396401;19;20027;-60
2024/04/19 00:35:55;;;;;;;3.60;3.17;;;;;;;0.70;100.00;95879.00;7396660;19;20457;-60
2024/04/19 00:38:21;;;;;;;3.90;3.50;;;;;;;0.94;100.00;95869.34;7395408;19;20050;-56
2024/04/19 00:40:47;;;;;;;3.80;3.40;;;;;;;0.81;100.00;95866.03;7394112;19;20014;-57
2024/04/19 00:43:12;;;;;;;5.28;3.58;;;;;;;0.77;100.00;95874.63;7395996;19;20103;-54
2024/04/19 00:45:39;;;;;;;4.00;3.60;;;;;;;0.71;100.00;95876.41;7396323;19;20007;-55
2024/04/19 00:48:18;;;;;;;3.60;3.13;;;;;;;0.55;100.00;95865.41;7395852;19;20070;-60
2024/04/19 00:50:44;;;;;;;4.80;3.58;;;;;;;0.70;100.00;95879.00;7395815;19;19999;-63
2024/04/19 00:53:13;;;;;;;4.70;3.38;;;;;;;0.67;100.00;95879.91;7395714;19;20003;-54
2024/04/19 00:55:40;;;;;;;3.67;3.38;;;;;;;0.71;100.00;95875.56;7396021;19;20023;-58
2024/04/19 00:58:06;;;;;;;4.68;3.47;;;;;;;0.65;100.00;95883.34;7395110;19;20036;-62
2024/04/19 01:00:32;;;;;;;4.65;3.70;;;;;;;0.64;100.00;95874.78;7395479;19;20009;-59
2024/04/19 01:02:57;;;;;;;5.10;3.55;;;;;;;0.74;100.00;95884.13;7395447;19;20026;-59
2024/04/19 01:05:24;;;;;;;5.20;3.00;;;;;;;0.50;100.00;95882.63;7394102;19;20006;-55
2024/04/19 01:07:50;;;;;;;4.22;3.38;;;;;;;0.52;100.00;95880.88;7395383;19;20017;-58
2024/04/19 01:10:16;;;;;;;3.50;3.20;;;;;;;0.40;100.00;95879.28;7395229;19;20465;-58
2024/04/19 01:12:42;;;;;;;4.55;3.13;;;;;;;0.54;100.00;95873.16;7394082;19;20446;-59
2024/04/19 01:15:23;;;;;;;4.65;3.40;;;;;;;0.50;100.00;95872.31;7395523;19;19998;-60
2024/04/19 01:17:49;;;;;;;3.80;3.50;;;;;;;0.57;100.00;95876.53;7394876;19;20548;-57
2024/04/19 01:20:15;;;;;;;3.80;3.40;;;;;;;0.42;100.00;95876.69;7395377;19;20016;-61
2024/04/19 01:22:42;;;;;;;4.03;3.22;;;;;;;0.50;100.00;95873.19;7394912;19;20481;-61
2024/04/19 01:25:22;;;;;;;3.78;3.40;;;;;;;0.46;100.00;95879.22;7394936;19;20509;-58
2024/04/19 01:27:48;;;;;;;7.45;3.40;;;;;;;0.41;100.00;95882.69;7394866;19;19999;-55
2024/04/19 01:30:14;;;;;;;4.18;3.03;;;;;;;0.31;100.00;95882.78;7394769;19;20002;-58
2024/04/19 01:32:39;;;;;;;3.63;3.33;;;;;;;0.32;100.00;95884.47;7394614;19;20098;-58
2024/04/19 01:35:05;;;;;;;3.83;3.42;;;;;;;0.43;100.00;95879.25;7394978;19;20003;-64
2024/04/19 01:37:31;;;;;;;4.03;3.28;;;;;;;0.36;100.00;95881.00;7394561;19;20006;-61
2024/04/19 01:39:56;;;;;;;6.88;3.55;;;;;;;0.22;100.00;95886.28;7392448;19;20002;-61
2024/04/19 01:42:22;;;;;;;4.00;3.50;;;;;;;0.36;100.00;95885.31;7394469;19;19995;-56
2024/04/19 01:44:47;;;;;;;3.40;3.10;;;;;;;0.30;100.00;95885.38;7394759;19;20010;-54
2024/04/19 01:47:13;;;;;;;6.32;3.55;;;;;;;0.39;100.00;95887.84;7394262;19;20326;-62
2024/04/19 01:49:39;;;;;;;4.45;3.08;;;;;;;0.32;100.00;95889.63;7394571;19;20007;-59
2024/04/19 01:52:05;;;;;;;4.35;3.65;;;;;;;0.24;100.00;95888.84;7396737;19;20073;-58
2024/04/19 01:54:30;;;;;;;3.40;3.05;;;;;;;0.22;100.00;95891.44;7401716;19;20025;-62
2024/04/19 01:56:58;;;;;;;3.35;2.85;;;;;;;0.01;100.00;95889.84;7401721;19;20062;-61
2024/04/19 01:59:27;;;;;;;3.78;3.47;;;;;;;0.12;100.00;95892.38;7399313;19;20482;-58
2024/04/19 02:01:53;;;;;;;5.93;3.05;;;;;;;0.21;100.00;95894.84;7401501;19;20003;-56
2024/04/19 02:04:19;;;;;;;3.58;3.28;;;;;;;0.09;100.00;95885.50;7400421;19;19998;-57
2024/04/19 02:06:44;;;;;;;4.00;3.25;;;;;;;0.12;100.00;95894.94;7401427;19;20011;-61
2024/04/19 02:09:10;;;;;;;4.10;3.38;;;;;;;0.01;100.00;95889.00;7401199;19;20009;-58
2024/04/19 02:11:35;;;;;;;4.28;3.00;;;;;;;-0.07;100.00;95889.91;7401488;19;20007;-56
2024/04/19 02:14:01;;;;;;;4.38;3.97;;;;;;;-0.06;100.00;95895.91;7400982;19;20414;-62
2024/04/19 02:16:26;;;;;;;3.70;3.28;;;;;;;-0.09;100.00;95896.75;7401008;19;20002;-59
2024/04/19 02:18:52;;;;;;;3.35;3.05;;;;;;;-0.05;100.00;95903.59;7399698;19;20002;-58
2024/04/19 02:21:18;;;;;;;5.70;3.40;;;;;;;-0.02;100.00;95901.03;7400761;19;20025;-56
2024/04/19 02:23:43;;;;;;;5.85;3.63;;;;;;;-0.05;100.00;95895.91;7400695;19;20002;-59
2024/04/19 02:26:10;;;;;;;3.80;3.50;;;;;;;-0.06;100.00;95898.47;7400668;19;20019;-60
2024/04/19 02:31:23;;;;;;;4.57;3.45;;;;;;;-0.27;100.00;95896.00;7400649;19;20001;-56
2024/04/19 02:33:48;;;;;;;3.88;3.10;;;;;;;-0.21;100.00;95899.41;7400403;19;19999;-60
2024/04/19 02:36:14;;;;;;;3.33;3.03;;;;;;;-0.26;100.00;95896.88;7400282;19;20013;-59
2024/04/19 02:38:40;;;;;;;3.65;3.35;;;;;;;-0.29;100.00;95896.88;7399422;19;20016;-58
2024/04/19 02:41:06;;;;;;;5.63;3.10;;;;;;;-0.18;100.00;95892.53;7400558;19;20047;-60
2024/04/19 02:43:32;;;;;;;3.35;2.83;;;;;;;-0.15;100.00;95896.81;7399985;19;20454;-55
2024/04/19 02:46:07;;;;;;;4.18;3.25;;;;;;;-0.21;100.00;95895.09;7400000;19;20089;-64
2024/04/19 02:48:33;;;;;;;6.38;3.30;;;;;;;-0.15;100.00;95894.25;7399909;19;20028;-59
2024/04/19 02:50:59;;;;;;;3.30;3.00;;;;;;;0.01;100.00;95894.13;7399995;19;20002;-58
2024/04/19 02:53:24;;;;;;;5.60;2.92;;;;;;;-0.06;100.00;95896.72;7399741;19;20363;-57
2024/04/19 02:55:51;;;;;;;4.38;3.33;;;;;;;-0.02;100.00;95892.44;7399651;19;20001;-56
2024/04/19 02:58:17;;;;;;;3.30;3.00;;;;;;;-0.15;100.00;95895.06;7399238;19;20002;-61
2024/04/19 03:00:42;;;;;;;3.53;3.22;;;;;;;-0.25;100.00;95901.13;7399897;19;20003;-59
2024/04/19 03:03:08;;;;;;;6.32;3.38;;;;;;;-0.18;100.00;95910.53;7397988;19;20395;-59
2024/04/19 03:05:33;;;;;;;4.10;3.17;;;;;;;-0.24;100.00;95902.00;7397612;19;20009;-60
2024/04/19 03:07:59;;;;;;;3.28;2.97;;;;;;;-0.19;100.00;95898.53;7399511;19;20031;-62
2024/04/19 03:10:25;;;;;;;4.60;3.33;;;;;;;-0.25;100.00;95896.00;7399624;19;20023;-54
2024/04/19 03:12:50;;;;;;;3.47;3.17;;;;;;;-0.22;100.00;95901.13;7399078;19;20466;-60
2024/04/19 03:15:16;;;;;;;3.63;3.33;;;;;;;-0.11;100.00;95898.50;7399075;19;20003;-57
2024/04/19 03:17:41;;;;;;;3.10;2.80;;;;;;;-0.04;100.00;95901.88;7398750;19;19998;-62
2024/04/19 03:20:07;;;;;;;3.50;3.20;;;;;;;-0.25;100.00;95898.56;7399205;19;20023;-58
2024/04/19 03:22:33;;;;;;;3.30;3.00;;;;;;;-0.29;100.00;95890.03;7398932;19;19991;-62
2024/04/19 03:24:58;;;;;;;5.65;3.15;;;;;;;-0.20;100.00;95898.53;7399069;19;20002;-58
2024/04/19 03:27:24;;;;;;;3.63;3.33;;;;;;;-0.23;100.00;95901.13;7399006;19;19998;-56
2024/04/19 03:29:57;;;;;;;4.32;3.40;;;;;;;-0.15;100.00;95907.94;7398881;19;20477;-62
2024/04/19 03:32:23;;;;;;;8.25;3.08;;;;;;;-0.08;100.00;95911.34;7398434;19;20002;-64
2024/04/19 03:34:49;;;;;;;3.13;2.83;;;;;;;-0.05;100.00;95919.03;7398785;19;20066;-58
2024/04/19 03:37:15;;;;;;;3.58;3.13;;;;;;;-0.13;100.00;95919.06;7398298;19;20477;-58
2024/04/19 03:39:42;;;;;;;3.63;3.33;;;;;;;-0.22;100.00;95919.13;7396312;19;19995;-61
2024/04/19 03:42:11;;;;;;;3.17;2.90;;;;;;;-0.46;100.00;95923.53;7398372;19;20002;-60
2024/04/19 03:47:22;;;;;;;3.67;2.72;;;;;;;-0.43;100.00;95928.66;7398534;19;20027;-58
2024/04/19 03:49:47;;;;;;;3.97;3.50;;;;;;;-0.18;100.00;95928.53;7398000;19;20082;-58
2024/04/19 03:52:13;;;;;;;3.80;3.17;;;;;;;-0.20;100.00;95932.84;7397771;19;20012;-60
2024/04/19 03:54:38;;;;;;;3.30;3.00;;;;;;;-0.13;100.00;95929.38;7398150;19;19998;-60
2024/04/19 03:57:04;;;;;;;5.30;2.75;;;;;;;-0.07;100.00;95925.03;7397681;19;20055;-56
2024/04/19 03:59:29;;;;;;;3.95;3.20;;;;;;;-0.16;100.00;95938.78;7396373;19;20358;-58
2024/04/19 04:01:55;;;;;;;2.97;2.67;;;;;;;0.11;100.00;95942.94;7397881;19;19998;-62
2024/04/19 04:04:21;;;;;;;8.25;3.20;;;;;;;0.21;100.00;95942.91;7396800;19;20444;-53
2024/04/19 04:06:46;;;;;;;3.47;3.17;;;;;;;0.23;100.00;95942.00;7397359;19;20010;-57
2024/04/19 04:09:12;;;;;;;6.68;3.15;;;;;;;0.23;100.00;95944.59;7397163;19;20070;-62
2024/04/19 04:11:38;;;;;;;6.90;3.10;;;;;;;0.22;100.00;95947.16;7397207;19;20571;-59
2024/04/19 04:14:04;;;;;;;7.45;3.10;;;;;;;0.53;100.00;95954.66;7397044;19;20092;-57
2024/04/19 04:16:30;;;;;;;3.88;3.08;;;;;;;2.85;97.10;95961.34;7396821;19;20007;-61
2024/04/19 04:18:55;;;;;;;2.45;2.22;;;;;;;3.60;87.52;95970.38;7395751;19;20027;-62
2024/04/19 04:21:21;;;;;;;2.67;2.38;;;;;;;4.16;83.35;95968.41;7396789;19;19995;-61
2024/04/19 04:23:46;;;;;;;2.47;2.17;;;;;;;4.59;78.86;95969.16;7396612;19;20354;-60
2024/04/19 04:26:12;;;;;;;6.85;2.35;;;;;;;5.46;75.44;95983.47;7396787;19;20044;-55
2024/04/19 04:28:38;;;;;;;3.25;2.03;;;;;;;5.84;72.96;95978.97;7396600;19;20005;-59
2024/04/19 04:31:04;;;;;;;2.60;2.40;;;;;;;5.65;72.85;95987.25;7396910;19;20069;-60
2024/04/19 04:33:29;;;;;;;2.25;2.00;;;;;;;6.18;72.13;95987.56;7396306;19;20015;-54
2024/04/19 04:35:56;;;;;;;2.90;1.90;;;;;;;6.18;71.72;95990.16;7396746;19;20044;-62
2024/04/19 04:38:22;;;;;;;4.63;2.00;;;;;;;6.67;70.26;95997.38;7395976;19;20002;-57
2024/04/19 04:40:47;;;;;;;2.28;1.65;;;;;;;6.76;71.59;95997.09;7396135;19;20030;-62
2024/04/19 04:43:16;;;;;;;3.50;1.98;;;;;;;7.78;66.56;96004.16;7396374;19;20490;-62
2024/04/19 04:45:42;;;;;;;7.80;2.20;;;;;;;7.79;64.96;96006.72;7396554;19;20031;-57
2024/04/19 04:48:07;;;;;;;3.83;1.70;;;;;;;8.26;64.55;96012.88;7395969;19;20469;-55
2024/04/19 04:50:33;;;;;;;9.10;2.00;;;;;;;9.20;62.78;96009.28;7395867;19;20002;-55
2024/04/19 04:53:01;;;;;;;5.65;2.03;;;;;;;8.74;61.72;96012.84;7395807;19;20009;-57
2024/04/19 04:55:31;;;;;;;4.72;1.70;;;;;;;9.04;61.35;96011.69;7395786;19;19995;-59
2024/04/19 04:57:56;;;;;;;2.65;1.88;;;;;;;9.00;62.19;96013.53;7395381;19;20002;-59
2024/04/19 05:00:22;;;;;;;3.28;1.75;;;;;;;9.89;63.47;96022.09;7395579;19;19995;-60
2024/04/19 05:02:47;;;;;;;7.70;1.60;;;;;;;10.20;62.05;96021.59;7395903;19;20015;-57
2024/04/19 05:05:13;;;;;;;4.55;2.20;;;;;;;10.23;62.99;96016.22;7394603;19;20468;-63
2024/04/19 05:07:39;;;;;;;4.53;1.60;;;;;;;9.86;63.50;96028.31;7395786;19;20018;-60
2024/04/19 05:10:05;;;;;;;2.28;1.50;;;;;;;9.52;65.88;96021.91;7395433;19;20461;-54
2024/04/19 05:12:31;;;;;;;6.55;1.98;;;;;;;9.81;63.18;96027.69;7395162;19;20024;-59
2024/04/19 05:14:57;;;;;;;14.13;2.53;;;;;;;9.93;61.22;96028.91;7395100;19;19996;-58
2024/04/19 05:17:23;;;;;;;14.90;2.38;;;;;;;8.00;68.29;96021.66;7395552;19;20015;-61
2024/04/19 05:19:49;;;;;;;14.27;2.72;;;;;;;10.09;63.50;96031.69;7393681;19;20369;-63
2024/04/19 05:22:14;;;;;;;8.18;3.10;;;;;;;11.62;60.58;96038.53;7395498;19;20016;-63
2024/04/19 05:24:42;;;;;;;12.73;2.42;;;;;;;12.94;51.94;96055.38;7395316;19;20483;-59
2024/04/19 05:27:07;;;;;;;5.70;1.98;;;;;;;13.85;49.12;96056.44;7401465;19;20002;-56
2024/04/19 05:29:33;;;;;;;8.73;2.63;;;;;;;15.01;47.54;96055.59;7408970;19;19994;-60
2024/04/19 05:31:58;;;;;;;6.13;1.88;;;;;;;17.15;42.09;96065.09;7408993;19;20022;-59
2024/04/19 05:34:24;;;;;;;5.03;1.60;;;;;;;18.05;40.61;96062.94;7408858;19;19995;-59
2024/04/19 05:36:49;;;;;;;2.05;1.88;;;;;;;18.59;37.80;96070.38;7409295;19;20080;-57
2024/04/19 05:39:15;;;;;;;3.05;1.83;;;;;;;19.38;38.30;96063.34;7407469;19;20409;-61
2024/04/19 05:41:41;;;;;;;3.60;2.35;;;;;;;20.32;35.58;96075.94;7408743;19;20001;-63
2024/04/19 05:44:07;;;;;;;5.88;1.90;;;;;;;20.13;36.48;96079.34;7408638;19;20058;-59
2024/04/19 05:46:33;;;;;;;5.10;2.17;;;;;;;18.67;37.64;96068.81;7408647;19;20093;-58
2024/04/19 05:48:59;;;;;;;2.60;1.80;;;;;;;16.26;41.36;96071.25;7408623;19;20015;-53
2024/04/19 05:51:24;;;;;;;1.65;1.50;;;;;;;14.58;47.43;96057.34;7408433;19;20015;-60
2024/04/19 05:53:50;;;;;;;3.30;1.90;;;;;;;13.13;52.59;96053.41;7408567;19;19998;-61
2024/04/19 05:56:16;;;;;;;1.70;1.60;;;;;;;13.90;51.25;96057.00;7408701;19;20100;-63
2024/04/19 05:58:44;;;;;;;2.00;1.60;;;;;;;13.69;48.55;96056.50;7407402;19;20460;-59
2024/04/19 06:01:09;;;;;;;4.78;1.50;;;;;;;13.92;47.49;96059.53;7408325;19;19999;-59
2024/04/19 06:03:35;;;;;;;2.03;1.73;;;;;;;14.47;47.19;96057.13;7408260;19;20062;-63
2024/04/19 06:06:01;;;;;;;4.88;1.83;;;;;;;14.64;46.39;96061.38;7406155;19;20002;-55
2024/04/19 06:08:26;;;;;;;3.28;1.77;;;;;;;13.66;46.53;96065.38;7408355;19;20031;-58
2024/04/19 06:10:52;;;;;;;6.93;2.03;;;;;;;14.79;46.47;96070.13;7408024;19;20009;-58
2024/04/19 06:13:17;;;;;;;5.90;2.05;;;;;;;14.91;45.68;96074.59;7407762;19;20019;-56
2024/04/19 06:15:43;;;;;;;4.28;2.33;;;;;;;14.88;47.17;96066.06;7407754;19;20010;-60
2024/04/19 06:18:09;;;;;;;1.55;1.45;;;;;;;14.83;45.76;96063.72;7407217;19;19995;-53
2024/04/19 06:20:36;;;;;;;2.60;1.80;;;;;;;15.12;44.62;96074.22;7407640;19;20010;-54
2024/04/19 06:23:03;;;;;;;1.98;1.80;;;;;;;15.40;44.89;96069.78;7407999;19;20007;-58
2024/04/19 06:25:29;;;;;;;3.45;2.00;;;;;;;16.68;40.79;96084.22;7407842;19;20420;-55
2024/04/19 06:27:54;;;;;;;2.95;1.80;;;;;;;14.48;43.06;96069.38;7407592;19;20036;-60
2024/04/19 06:30:20;;;;;;;3.92;1.70;;;;;;;13.26;45.47;96068.47;7407863;19;19999;-64
2024/04/19 06:32:45;;;;;;;1.73;1.63;;;;;;;14.10;45.15;96068.13;7407382;19;20468;-53
2024/04/19 06:35:15;;;;;;;2.00;1.48;;;;;;;14.02;45.38;96064.16;7407277;19;20030;-60
2024/04/19 06:37:40;;;;;;;1.75;1.60;;;;;;;13.29;45.19;96070.94;7405915;19;20371;-57
2024/04/19 06:40:07;;;;;;;1.42;1.33;;;;;;;13.54;45.17;96074.00;7395998;19;20005;-53
2024/04/19 06:42:33;;;;;;;1.42;1.33;;;;;;;13.94;44.97;96074.28;7400167;19;20003;-58
2024/04/19 06:44:58;;;;;;;1.50;1.40;;;;;;;14.89;42.67;96083.53;7400132;19;20010;-57
2024/04/19 06:47:24;;;;;;;4.18;2.30;;;;;;;14.44;41.03;96086.25;7400105;19;19995;-56
2024/04/19 06:49:49;;;;;;;3.80;2.75;;;;;;;14.91;42.63;96079.03;7399958;19;20105;-55
2024/04/19 06:52:15;;;;;;;3.60;2.13;;;;;;;14.49;42.11;96076.31;7399871;19;20016;-59
2024/04/19 06:54:41;;;;;;;2.55;1.95;;;;;;;13.73;43.89;96079.84;7400200;19;20002;-52
2024/04/19 06:57:07;;;;;;;1.83;1.50;;;;;;;14.46;42.50;96085.25;7400023;19;20006;-55
2024/04/19 06:59:32;;;;;;;2.40;2.08;;;;;;;13.32;40.88;96089.16;7397998;19;20048;-58
2024/04/19 07:01:58;;;;;;;2.58;1.60;;;;;;;13.90;43.00;96088.53;7399631;19;20487;-59
2024/04/19 07:04:25;;;;;;;3.42;1.80;;;;;;;13.76;42.79;96087.56;7399062;19;20016;-61
2024/04/19 07:06:50;;;;;;;3.45;2.40;;;;;;;14.43;44.80;96081.94;7399541;19;20010;-58
2024/04/19 07:09:16;;;;;;;2.95;1.83;;;;;;;14.82;42.07;96085.72;7399280;19;20102;-59
2024/04/19 07:11:44;;;;;;;4.53;1.90;;;;;;;15.66;39.64;96093.56;7399585;19;19998;-54
2024/04/19 07:14:10;;;;;;;4.95;2.03;;;;;;;14.75;41.32;96087.84;7399158;19;20001;-57
2024/04/19 07:16:36;;;;;;;2.03;1.70;;;;;;;15.28;40.03;96084.59;7399437;19;20457;-56
2024/04/19 07:19:01;;;;;;;2.20;1.70;;;;;;;14.15;40.00;96087.09;7397650;19;20335;-59
2024/04/19 07:21:27;;;;;;;1.98;1.80;;;;;;;15.01;38.56;96088.06;7397654;19;20010;-56
2024/04/19 07:23:52;;;;;;;2.70;1.52;;;;;;;15.12;39.06;96078.63;7398786;19;20010;-58
2024/04/19 07:26:18;;;;;;;4.97;1.80;;;;;;;15.71;39.56;96085.38;7398680;19;20033;-58
2024/04/19 07:28:43;;;;;;;3.80;1.40;;;;;;;15.86;38.38;96094.06;7398584;19;19999;-57
2024/04/19 07:31:10;;;;;;;2.35;1.80;;;;;;;14.71;41.06;96080.25;7398559;19;20337;-59
2024/04/19 07:33:36;;;;;;;5.22;1.90;;;;;;;15.03;41.54;96085.31;7398416;19;20098;-59
2024/04/19 07:36:02;;;;;;;8.15;2.45;;;;;;;15.77;42.23;96084.97;7398488;19;20007;-61
2024/04/19 07:38:28;;;;;;;5.25;2.60;;;;;;;17.88;38.30;96088.88;7397534;19;20007;-56
2024/04/19 07:40:53;;;;;;;3.55;2.50;;;;;;;16.50;40.46;96089.81;7398232;19;20025;-59
2024/04/19 07:43:19;;;;;;;5.22;2.70;;;;;;;15.52;41.88;96081.31;7398241;19;20062;-59
2024/04/19 07:45:45;;;;;;;5.63;2.50;;;;;;;14.98;43.10;96080.34;7398104;19;20002;-57
2024/04/19 07:48:10;;;;;;;2.22;2.00;;;;;;;14.80;41.97;96073.59;7398393;19;20035;-58
2024/04/19 07:50:36;;;;;;;2.30;1.70;;;;;;;14.99;40.66;96074.13;7397480;19;19999;-62
2024/04/19 07:53:02;;;;;;;2.00;1.80;;;;;;;15.96;41.82;96074.97;7398002;19;20429;-60
2024/04/19 07:55:28;;;;;;;5.95;2.10;;;;;;;17.29;39.42;96069.41;7397756;19;20377;-58
2024/04/19 07:57:54;;;;;;;3.13;1.83;;;;;;;16.68;35.51;96077.13;7397435;19;20014;-59
2024/04/19 08:00:21;;;;;;;2.80;1.98;;;;;;;17.81;35.60;96074.44;7397972;19;20476;-59
2024/04/19 08:02:47;;;;;;;4.10;2.30;;;;;;;17.65;37.19;96069.44;7397489;19;20010;-58
2024/04/19 08:05:13;;;;;;;5.25;2.22;;;;;;;16.41;41.86;96069.34;7396364;19;20002;-60
2024/04/19 08:07:39;;;;;;;3.70;1.83;;;;;;;16.31;41.56;96069.13;7397719;19;20349;-61
2024/04/19 08:10:06;;;;;;;2.80;2.50;;;;;;;14.66;41.78;96068.22;7397304;19;19998;-61
2024/04/19 08:12:32;;;;;;;3.95;2.72;;;;;;;15.39;40.02;96069.88;7397191;19;20477;-56
2024/04/19 08:14:58;;;;;;;3.42;2.20;;;;;;;16.51;39.82;96066.91;7397051;19;20027;-60
2024/04/19 08:17:23;;;;;;;4.60;2.63;;;;;;;14.83;43.22;96068.97;7396995;19;20002;-59
2024/04/19 08:19:49;;;;;;;3.17;2.10;;;;;;;14.59;40.12;96064.28;7395218;19;19999;-57
2024/04/19 08:22:15;;;;;;;3.88;2.10;;;;;;;15.51;42.62;96061.16;7397222;19;20346;-56
2024/04/19 08:24:41;;;;;;;1.92;1.70;;;;;;;16.26;42.35;96065.97;7396799;19;20006;-55
2024/04/19 08:27:07;;;;;;;2.55;1.80;;;;;;;15.20;38.27;96057.06;7396886;19;20002;-58
2024/04/19 08:29:33;;;;;;;4.35;1.80;;;;;;;15.01;40.58;96056.44;7397086;19;20023;-62
2024/04/19 08:31:59;;;;;;;1.65;1.55;;;;;;;16.95;41.06;96062.09;7397031;19;20355;-60
2024/04/19 08:34:24;;;;;;;2.42;1.63;;;;;;;17.08;40.22;96067.34;7396524;19;20002;-56
2024/04/19 08:36:50;;;;;;;2.08;1.80;;;;;;;16.42;41.14;96055.19;7396816;19;20089;-59
2024/04/19 08:39:16;;;;;;;3.13;1.70;;;;;;;17.39;38.84;96053.69;7395445;19;20066;-58
2024/04/19 08:41:42;;;;;;;1.58;1.48;;;;;;;17.15;38.80;96059.81;7396121;19;20007;-57
2024/04/19 08:44:09;;;;;;;3.75;1.90;;;;;;;16.99;37.75;96060.06;7396227;19;20014;-57
2024/04/19 08:46:37;;;;;;;5.63;1.77;;;;;;;17.07;40.65;96049.81;7396171;19;20005;-60
2024/04/19 08:49:05;;;;;;;3.88;1.90;;;;;;;17.04;39.40;96048.19;7396461;19;20025;-55
2024/04/19 08:51:32;;;;;;;2.10;1.67;;;;;;;16.20;38.00;96051.41;7395880;19;20793;-62
2024/04/19 08:53:58;;;;;;;5.88;1.70;;;;;;;16.72;38.50;96042.56;7395902;19;20002;-58
2024/04/19 08:56:24;;;;;;;2.60;2.00;;;;;;;14.75;38.85;96029.13;7396222;19;20003;-60
2024/04/19 08:58:53;;;;;;;1.70;1.48;;;;;;;16.40;39.11;96034.19;7394915;19;20039;-58
2024/04/19 09:01:19;;;;;;;1.92;1.50;;;;;;;16.89;38.77;96034.28;7394096;19;19998;-54
2024/04/19 09:03:45;;;;;;;2.10;1.58;;;;;;;16.98;39.91;96031.97;7395840;19;20397;-57
2024/04/19 09:06:13;;;;;;;4.78;1.75;;;;;;;17.27;38.42;96029.00;7393776;19;19995;-57
2024/04/19 09:08:39;;;;;;;2.58;1.52;;;;;;;17.24;39.03;96031.88;7395453;19;20017;-55
2024/04/19 09:11:16;;;;;;;2.53;1.40;;;;;;;15.90;36.12;96040.16;7395266;19;20002;-56
2024/04/19 09:13:43;;;;;;;4.45;1.60;;;;;;;14.53;42.35;96026.03;7395873;19;20373;-59
2024/04/19 09:16:11;;;;;;;2.53;1.33;;;;;;;15.38;40.78;96026.88;7395338;19;19999;-61
2024/04/19 09:18:37;;;;;;;1.73;1.48;;;;;;;16.43;37.66;96030.47;7394513;19;20370;-58
2024/04/19 09:21:03;;;;;;;2.03;1.30;;;;;;;16.44;40.42;96026.06;7395051;19;20007;-57
2024/04/19 09:23:29;;;;;;;1.77;1.23;;;;;;;16.91;40.58;96021.84;7394951;19;20019;-56
2024/04/19 09:25:56;;;;;;;1.30;1.20;;;;;;;16.45;41.54;96025.94;7395005;19;19999;-56
2024/04/19 09:28:22;;;;;;;3.13;1.50;;;;;;;15.87;38.72;96027.16;7394859;19;20012;-56
2024/04/19 09:30:52;;;;;;;1.73;1.17;;;;;;;16.71;40.63;96019.78;7394766;19;20273;-58
2024/04/19 09:33:23;;;;;;;1.88;1.50;;;;;;;16.34;41.89;96010.03;7394702;19;19998;-58
2024/04/19 09:35:50;;;;;;;3.15;1.30;;;;;;;15.24;39.59;96019.03;7394623;19;20010;-58
2024/04/19 09:38:17;;;;;;;2.40;1.40;;;;;;;16.24;39.12;96010.66;7394539;19;20003;-59
2024/04/19 09:40:46;;;;;;;2.65;1.23;;;;;;;16.03;40.31;96010.34;7394694;19;20003;-57
2024/04/19 09:43:15;;;;;;;3.08;1.23;;;;;;;16.38;40.89;96012.31;7394511;19;20003;-57
2024/04/19 09:45:47;;;;;;;1.85;1.38;;;;;;;15.56;42.26;96008.16;7394410;19;19995;-58
2024/04/19 09:48:17;;;;;;;1.50;1.30;;;;;;;14.98;37.85;96014.50;7394512;19;20528;-56
2024/04/19 09:50:51;;;;;;;3.35;1.40;;;;;;;15.98;41.49;96008.00;7394433;19;20002;-59
2024/04/19 09:53:24;;;;;;;6.82;1.25;;;;;;;17.27;38.38;96005.22;7394347;19;19999;-60
2024/04/19 09:56:09;;;;;;;1.52;1.10;;;;;;;16.84;40.86;96009.16;7394553;19;20014;-54
2024/04/19 09:58:36;;;;;;;3.45;1.25;;;;;;;17.09;38.70;96004.78;7393791;19;20002;-60
2024/04/19 10:01:03;;;;;;;4.43;1.23;;;;;;;16.38;36.54;96007.03;7393902;19;20337;-56
2024/04/19 10:03:29;;;;;;;3.85;1.20;;;;;;;16.78;37.80;96003.38;7394307;19;20023;-61
2024/04/19 10:05:56;;;;;;;4.78;1.00;;;;;;;17.17;36.91;95998.00;7392150;19;20015;-58
2024/04/19 10:08:27;;;;;;;2.15;1.35;;;;;;;16.40;36.50;96001.66;7393863;19;20011;-58
2024/04/19 10:10:55;;;;;;;1.33;0.90;;;;;;;17.69;36.07;95991.56;7393643;19;19999;-61
2024/04/19 10:13:24;;;;;;;1.88;1.20;;;;;;;16.73;35.20;95986.16;7396847;19;20007;-59
2024/04/19 10:15:50;;;;;;;1.30;1.17;;;;;;;17.35;36.36;95994.09;7401081;19;20076;-56
2024/04/19 10:18:16;;;;;;;1.45;1.10;;;;;;;17.55;34.22;95990.81;7400557;19;20453;-57
2024/04/19 10:20:41;;;;;;;1.13;1.00;;;;;;;17.66;36.16;95986.50;7400942;19;19998;-57
2024/04/19 10:23:13;;;;;;;1.40;1.30;;;;;;;16.00;37.34;95992.09;7401202;19;20019;-59
2024/04/19 10:25:39;;;;;;;2.25;1.20;;;;;;;16.45;33.63;95989.00;7400785;19;20461;-55
2024/04/19 10:28:31;;;;;;;1.30;1.17;;;;;;;16.70;35.40;95991.69;7400664;19;19999;-57
2024/04/19 10:30:57;;;;;;;3.35;1.33;;;;;;;15.87;34.99;95986.78;7400677;19;20518;-60
2024/04/19 10:33:23;;;;;;;1.20;1.08;;;;;;;14.64;35.56;95988.53;7400423;19;20002;-62
2024/04/19 10:35:48;;;;;;;1.40;1.27;;;;;;;13.81;35.71;95992.66;7400822;19;20014;-59
2024/04/19 10:38:14;;;;;;;4.00;1.40;;;;;;;14.67;38.16;95976.94;7399816;19;20358;-57
2024/04/19 10:40:40;;;;;;;1.52;1.20;;;;;;;15.01;34.43;95977.44;7400222;19;19998;-60
2024/04/19 10:43:08;;;;;;;1.63;1.30;;;;;;;15.28;35.37;95957.28;7400557;19;20006;-56
2024/04/19 10:45:36;;;;;;;2.00;1.30;;;;;;;13.42;36.69;95973.88;7400018;19;20022;-57
2024/04/19 10:48:02;;;;;;;1.40;1.30;;;;;;;13.24;38.24;95963.53;7400388;19;20362;-57
2024/04/19 10:50:29;;;;;;;1.40;1.30;;;;;;;13.81;38.32;95965.56;7400307;19;20011;-61
2024/04/19 10:52:56;;;;;;;1.40;1.27;;;;;;;14.01;40.46;95961.72;7399905;19;20016;-57
2024/04/19 10:55:23;;;;;;;2.80;1.25;;;;;;;13.63;41.57;95960.44;7400144;19;20017;-62
2024/04/19 10:57:49;;;;;;;1.40;1.30;;;;;;;13.44;39.75;95968.53;7399706;19;20005;-61
2024/04/19 11:00:15;;;;;;;1.40;1.30;;;;;;;13.34;40.67;95965.63;7397120;19;20007;-60
2024/04/19 11:02:41;;;;;;;5.32;1.30;;;;;;;12.40;41.03;95965.53;7399542;19;20094;-61
2024/04/19 11:05:09;;;;;;;1.80;1.40;;;;;;;13.65;39.78;95969.09;7398300;19;20002;-61
2024/04/19 11:07:35;;;;;;;4.75;1.40;;;;;;;13.53;38.97;95965.41;7399502;19;20002;-57
2024/04/19 11:10:01;;;;;;;5.13;2.00;;;;;;;12.77;40.94;95960.88;7399311;19;19998;-61
2024/04/19 11:12:27;;;;;;;7.55;1.83;;;;;;;13.24;40.87;95953.00;7399258;19;20023;-57
2024/04/19 11:14:52;;;;;;;4.38;1.83;;;;;;;13.31;40.96;95952.66;7399664;19;20003;-58
2024/04/19 11:17:18;;;;;;;2.50;1.58;;;;;;;12.85;43.47;95949.97;7399173;19;20491;-57
2024/04/19 11:19:46;;;;;;;1.70;1.60;;;;;;;12.51;42.30;95944.84;7397238;19;19990;-56
2024/04/19 11:22:12;;;;;;;8.13;1.80;;;;;;;12.70;42.16;95943.78;7399168;19;20015;-56
2024/04/19 11:24:39;;;;;;;2.80;1.80;;;;;;;12.61;43.77;95945.16;7398097;19;20066;-55
2024/04/19 11:27:05;;;;;;;3.63;1.85;;;;;;;12.46;42.86;95954.72;7398957;19;20027;-54
2024/04/19 11:29:32;;;;;;;3.15;1.70;;;;;;;12.06;42.68;95952.47;7399140;19;20002;-59
2024/04/19 11:32:03;;;;;;;4.20;1.80;;;;;;;11.86;42.99;95950.91;7399149;19;20018;-58
2024/04/19 11:34:31;;;;;;;3.33;1.95;;;;;;;12.12;43.59;95956.56;7398679;19;20011;-60